createdAt,value
2022-11-16T00:01:50.936Z,99944.84
2022-11-16T00:04:18.719Z,99950.84
2022-11-16T00:06:46.917Z,99962.00
2022-11-16T00:09:23.734Z,99961.16
2022-11-16T00:12:01.802Z,99964.59
2022-11-16T00:14:32.260Z,99962.03
2022-11-16T00:17:00.027Z,99963.72
2022-11-16T00:19:28.365Z,99955.19
2022-11-16T00:21:56.248Z,99956.88
2022-11-16T00:24:24.389Z,99950.06
2022-11-16T00:26:56.536Z,99953.50
2022-11-16T00:29:26.100Z,99941.50
2022-11-16T00:31:54.862Z,99950.06
2022-11-16T00:34:23.510Z,99926.88
2022-11-16T00:36:51.525Z,99944.94
2022-11-16T00:39:20.160Z,99896.88
2022-11-16T00:41:49.436Z,99934.66
2022-11-16T00:44:18.852Z,99932.91
2022-11-16T00:46:46.759Z,99939.78
2022-11-16T00:49:14.417Z,99938.03
2022-11-16T00:51:42.433Z,99936.31
2022-11-16T00:54:10.466Z,99944.91
2022-11-16T00:56:39.329Z,99948.31
2022-11-16T00:59:07.428Z,99948.31
2022-11-16T01:01:35.342Z,99943.19
2022-11-16T01:04:02.829Z,99954.34
2022-11-16T01:06:30.355Z,99949.22
2022-11-16T01:08:57.872Z,99956.91
2022-11-16T01:11:43.883Z,99946.63
2022-11-16T01:14:11.542Z,99950.91
2022-11-16T01:16:39.177Z,99961.19
2022-11-16T01:19:06.789Z,99965.47
2022-11-16T01:21:34.871Z,99962.03
2022-11-16T01:24:02.669Z,99952.63
2022-11-16T01:26:30.444Z,99953.50
2022-11-16T01:28:59.847Z,99960.31
2022-11-16T01:31:31.231Z,99956.06
2022-11-16T01:34:00.937Z,99957.75
2022-11-16T01:36:30.116Z,99948.34
2022-11-16T01:38:59.964Z,99942.31
2022-11-16T01:41:30.719Z,99946.63
2022-11-16T01:44:03.607Z,99956.91
2022-11-16T01:46:43.123Z,99950.91
2022-11-16T01:49:18.065Z,99942.34
2022-11-16T01:51:51.520Z,99934.66
2022-11-16T01:54:19.594Z,99932.94
2022-11-16T01:56:57.506Z,99922.72
2022-11-16T01:59:32.559Z,99911.56
2022-11-16T02:02:01.140Z,99914.97
2022-11-16T02:04:30.036Z,99888.38
2022-11-16T02:08:00.741Z,99915.84
2022-11-16T02:10:34.988Z,99914.97
2022-11-16T02:13:32.563Z,99914.16
2022-11-16T02:16:18.594Z,99907.28
2022-11-16T02:18:46.119Z,99903.03
2022-11-16T02:21:35.479Z,99895.31
2022-11-16T02:24:05.484Z,99906.44
2022-11-16T02:26:48.012Z,99898.75
2022-11-16T02:29:21.159Z,99900.44
2022-11-16T02:32:11.477Z,99904.69
2022-11-16T02:34:45.390Z,99897.00
2022-11-16T02:37:17.323Z,99914.16
2022-11-16T02:39:48.547Z,99911.56
2022-11-16T02:42:30.203Z,99914.16
2022-11-16T02:45:00.097Z,99908.16
2022-11-16T02:47:33.552Z,99891.03
2022-11-16T02:50:23.652Z,99900.44
2022-11-16T02:52:53.599Z,99897.91
2022-11-16T02:55:21.946Z,99896.16
2022-11-16T02:57:57.649Z,99908.09
2022-11-16T03:00:59.877Z,99905.56
2022-11-16T03:03:51.167Z,99902.13
2022-11-16T03:06:31.666Z,99885.88
2022-11-16T03:09:12.548Z,99870.47
2022-11-16T03:11:59.816Z,99874.75
2022-11-16T03:14:33.825Z,99875.59
2022-11-16T03:17:03.849Z,99880.75
2022-11-16T03:19:52.038Z,99878.19
2022-11-16T03:22:27.228Z,99848.22
2022-11-16T03:24:54.875Z,99854.25
2022-11-16T03:27:35.580Z,99859.38
2022-11-16T03:30:13.886Z,99859.38
2022-11-16T03:32:55.419Z,99864.53
2022-11-16T03:35:24.853Z,99866.25
2022-11-16T03:37:56.052Z,99869.66
2022-11-16T03:40:28.114Z,99871.34
2022-11-16T03:42:57.366Z,99867.94
2022-11-16T03:45:25.064Z,99869.66
2022-11-16T03:47:53.772Z,99878.22
2022-11-16T03:50:22.120Z,99873.94
2022-11-16T03:52:49.478Z,99873.09
2022-11-16T03:55:16.970Z,99871.34
2022-11-16T03:57:45.332Z,99861.94
2022-11-16T04:00:13.144Z,99861.94
2022-11-16T04:02:44.417Z,99867.09
2022-11-16T04:05:36.743Z,99869.66
2022-11-16T04:08:23.380Z,99864.53
2022-11-16T04:11:09.536Z,99863.69
2022-11-16T04:13:56.350Z,99874.78
2022-11-16T04:16:42.301Z,99866.22
2022-11-16T04:19:28.456Z,99861.94
2022-11-16T04:22:25.748Z,99855.94
2022-11-16T04:25:00.633Z,99867.91
2022-11-16T04:27:48.297Z,99862.81
2022-11-16T04:30:16.359Z,99852.50
2022-11-16T04:33:02.290Z,99847.41
2022-11-16T04:35:48.521Z,99848.28
2022-11-16T04:38:15.994Z,99831.97
2022-11-16T04:40:43.294Z,99848.25
2022-11-16T04:43:12.973Z,99838.84
2022-11-16T04:46:01.227Z,99838.84
2022-11-16T04:48:36.105Z,99838.84
2022-11-16T04:51:04.422Z,99838.84
2022-11-16T04:53:32.942Z,99837.97
2022-11-16T04:56:07.749Z,99821.72
2022-11-16T04:58:35.505Z,99831.97
2022-11-16T05:01:03.539Z,99832.84
2022-11-16T05:03:31.164Z,99843.97
2022-11-16T05:05:58.455Z,99843.97
2022-11-16T05:08:26.201Z,99842.25
2022-11-16T05:10:54.701Z,99841.41
2022-11-16T05:13:22.051Z,99846.53
2022-11-16T05:15:51.084Z,99842.28
2022-11-16T05:18:18.361Z,99839.69
2022-11-16T05:21:00.557Z,99831.97
2022-11-16T05:23:49.376Z,99801.16
2022-11-16T05:26:20.118Z,99837.97
2022-11-16T05:28:48.223Z,99832.03
2022-11-16T05:31:15.473Z,99826.88
2022-11-16T05:33:42.838Z,99826.88
2022-11-16T05:36:11.672Z,99826.88
2022-11-16T05:38:39.832Z,99820.03
2022-11-16T05:41:07.227Z,99816.59
2022-11-16T05:43:35.336Z,99823.44
2022-11-16T05:46:14.877Z,99824.28
2022-11-16T05:48:42.299Z,99818.31
2022-11-16T05:51:09.492Z,99823.41
2022-11-16T05:53:36.740Z,99820.00
2022-11-16T05:56:05.590Z,99826.84
2022-11-16T05:58:35.578Z,99819.13
2022-11-16T06:01:03.933Z,99801.09
2022-11-16T06:03:33.143Z,99823.38
2022-11-16T06:06:00.772Z,99824.22
2022-11-16T06:08:30.387Z,99823.38
2022-11-16T06:11:03.960Z,99818.25
2022-11-16T06:13:32.478Z,99819.94
2022-11-16T06:16:02.278Z,99821.66
2022-11-16T06:18:31.889Z,99814.81
2022-11-16T06:20:59.632Z,99804.56
2022-11-16T06:23:26.832Z,99806.28
2022-11-16T06:25:55.755Z,99799.44
2022-11-16T06:28:26.170Z,99805.44
2022-11-16T06:30:54.674Z,99804.59
2022-11-16T06:33:24.565Z,99812.28
2022-11-16T06:35:51.933Z,99818.28
2022-11-16T06:38:23.793Z,99799.47
2022-11-16T06:40:54.863Z,99811.44
2022-11-16T06:43:25.561Z,99805.50
2022-11-16T06:45:55.733Z,99792.63
2022-11-16T06:48:23.248Z,99798.66
2022-11-16T06:50:52.509Z,99796.94
2022-11-16T06:53:27.528Z,99810.63
2022-11-16T06:56:04.163Z,99802.94
2022-11-16T06:58:35.375Z,99799.50
2022-11-16T07:01:08.678Z,99814.03
2022-11-16T07:03:39.133Z,99805.47
2022-11-16T07:06:09.960Z,99810.63
2022-11-16T07:08:40.249Z,99820.88
2022-11-16T07:11:10.437Z,99818.31
2022-11-16T07:13:39.251Z,99822.59
2022-11-16T07:16:10.968Z,99810.63
2022-11-16T07:18:42.846Z,99807.19
2022-11-16T07:21:13.626Z,99818.31
2022-11-16T07:23:42.928Z,99809.75
2022-11-16T07:26:13.613Z,99808.06
2022-11-16T07:28:48.603Z,99818.31
2022-11-16T07:31:20.095Z,99806.38
2022-11-16T07:33:48.023Z,99798.66
2022-11-16T07:36:42.443Z,99807.22
2022-11-16T07:39:10.793Z,99805.50
2022-11-16T07:41:39.188Z,99802.94
2022-11-16T07:44:16.321Z,99808.06
2022-11-16T07:46:47.133Z,99802.94
2022-11-16T07:49:18.322Z,99804.66
2022-11-16T07:51:58.856Z,99804.69
2022-11-16T07:54:42.933Z,99799.53
2022-11-16T07:57:10.346Z,99802.09
2022-11-16T07:59:40.615Z,99799.56
2022-11-16T08:02:10.412Z,99790.13
2022-11-16T08:04:39.991Z,99808.09
2022-11-16T08:07:08.918Z,99794.41
2022-11-16T08:09:43.468Z,99813.25
2022-11-16T08:12:15.549Z,99803.84
2022-11-16T08:14:44.270Z,99803.81
2022-11-16T08:17:13.946Z,99796.13
2022-11-16T08:19:43.110Z,99810.69
2022-11-16T08:22:13.940Z,99808.97
2022-11-16T08:24:42.808Z,99818.34
2022-11-16T08:27:10.729Z,99812.38
2022-11-16T08:29:38.719Z,99811.53
2022-11-16T08:32:09.953Z,99806.38
2022-11-16T08:34:38.609Z,99806.38
2022-11-16T08:37:07.679Z,99802.13
2022-11-16T08:39:40.770Z,99807.22
2022-11-16T08:42:11.359Z,99802.13
2022-11-16T08:44:41.251Z,99801.25
2022-11-16T08:47:14.480Z,99808.13
2022-11-16T08:49:49.832Z,99804.69
2022-11-16T08:52:21.259Z,99811.53
2022-11-16T08:54:51.130Z,99813.25
2022-11-16T08:57:19.440Z,99814.09
2022-11-16T08:59:52.769Z,99808.13
2022-11-16T09:02:25.911Z,99811.53
2022-11-16T09:04:55.360Z,99816.66
2022-11-16T09:07:23.305Z,99812.41
2022-11-16T09:09:51.659Z,99813.25
2022-11-16T09:12:20.568Z,99814.97
2022-11-16T09:14:50.359Z,99813.25
2022-11-16T09:17:22.998Z,99820.09
2022-11-16T09:19:51.619Z,99819.28
2022-11-16T09:22:19.818Z,99813.25
2022-11-16T09:24:47.528Z,99823.53
2022-11-16T09:27:15.689Z,99808.13
2022-11-16T09:29:43.759Z,99815.81
2022-11-16T09:32:11.838Z,99811.56
2022-11-16T09:34:39.651Z,99814.97
2022-11-16T09:37:08.702Z,99805.56
2022-11-16T09:39:36.439Z,99806.41
2022-11-16T09:42:38.829Z,99797.84
2022-11-16T09:45:17.899Z,99803.00
2022-11-16T09:47:52.491Z,99798.72
2022-11-16T09:50:45.579Z,99798.72
2022-11-16T09:53:19.058Z,99794.44
2022-11-16T09:55:53.185Z,99797.03
2022-11-16T09:58:50.899Z,99780.75
2022-11-16T10:01:27.832Z,99797.88
2022-11-16T10:04:03.200Z,99796.16
2022-11-16T10:06:57.968Z,99794.44
2022-11-16T10:09:26.179Z,99785.91
2022-11-16T10:12:15.406Z,99794.44
2022-11-16T10:15:28.817Z,99791.03
2022-11-16T10:18:28.118Z,99789.34
2022-11-16T10:21:10.407Z,99782.50
2022-11-16T10:23:55.225Z,99780.81
2022-11-16T10:26:47.452Z,99782.53
2022-11-16T10:29:23.178Z,99784.22
2022-11-16T10:32:00.785Z,99779.09
2022-11-16T10:34:43.055Z,99772.25
2022-11-16T10:37:13.603Z,99779.94
2022-11-16T10:39:41.612Z,99777.38
2022-11-16T10:42:16.382Z,99774.81
2022-11-16T10:44:51.302Z,99779.94
2022-11-16T10:47:24.781Z,99782.53
2022-11-16T10:50:04.091Z,99773.97
2022-11-16T10:52:32.477Z,99782.53
2022-11-16T10:54:59.888Z,99783.38
2022-11-16T10:57:57.405Z,99772.25
2022-11-16T11:00:48.003Z,99779.94
2022-11-16T11:03:15.937Z,99776.53
2022-11-16T11:05:54.016Z,99773.97
2022-11-16T11:08:30.797Z,99770.53
2022-11-16T11:11:25.530Z,99766.25
2022-11-16T11:14:19.263Z,99768.81
2022-11-16T11:16:46.747Z,99780.81
2022-11-16T11:19:28.514Z,99775.69
2022-11-16T11:22:00.484Z,99765.41
2022-11-16T11:24:43.851Z,99782.53
2022-11-16T11:27:12.002Z,99779.97
2022-11-16T11:29:43.185Z,99782.53
2022-11-16T11:32:24.166Z,99783.38
2022-11-16T11:34:56.729Z,99785.09
2022-11-16T11:37:26.837Z,99782.53
2022-11-16T11:40:23.348Z,99779.94
2022-11-16T11:43:02.726Z,99779.94
2022-11-16T11:45:45.375Z,99773.13
2022-11-16T11:48:12.642Z,99780.81
2022-11-16T11:50:53.974Z,99768.81
2022-11-16T11:53:38.036Z,99773.97
2022-11-16T11:56:05.953Z,99773.97
2022-11-16T11:58:37.661Z,99765.38
2022-11-16T12:01:30.696Z,99771.34
2022-11-16T12:04:07.205Z,99770.50
2022-11-16T12:06:43.613Z,99768.75
2022-11-16T12:09:27.965Z,99771.34
2022-11-16T12:12:32.904Z,99761.94
2022-11-16T12:15:05.985Z,99767.06
2022-11-16T12:17:50.471Z,99765.34
2022-11-16T12:20:31.426Z,99755.06
2022-11-16T12:23:28.333Z,99766.19
2022-11-16T12:26:27.462Z,99760.22
2022-11-16T12:29:02.678Z,99773.06
2022-11-16T12:31:51.516Z,99767.06
2022-11-16T12:34:37.434Z,99764.47
2022-11-16T12:37:11.498Z,99759.31
2022-11-16T12:40:15.289Z,99767.03
2022-11-16T12:42:55.601Z,99765.31
2022-11-16T12:45:32.268Z,99763.59
2022-11-16T12:48:21.864Z,99763.59
2022-11-16T12:51:14.364Z,99755.94
2022-11-16T12:54:06.140Z,99757.63
2022-11-16T12:56:47.454Z,99751.63
2022-11-16T12:59:42.645Z,99746.50
2022-11-16T13:03:00.959Z,99765.28
2022-11-16T13:05:43.300Z,99753.25
2022-11-16T13:08:56.457Z,99713.88
2022-11-16T13:11:28.286Z,99761.81
2022-11-16T13:14:03.850Z,99760.06
2022-11-16T13:16:31.790Z,99751.53
2022-11-16T13:19:01.252Z,99756.63
2022-11-16T13:22:00.319Z,99765.19
2022-11-16T13:24:39.309Z,99760.88
2022-11-16T13:27:28.920Z,99754.91
2022-11-16T13:30:18.791Z,99743.75
2022-11-16T13:33:23.082Z,99742.06
2022-11-16T13:35:51.902Z,99744.59
2022-11-16T13:38:53.217Z,99745.47
2022-11-16T13:41:37.827Z,99749.78
2022-11-16T13:44:20.376Z,99752.34
2022-11-16T13:46:56.961Z,99749.72
2022-11-16T13:49:34.377Z,99745.47
2022-11-16T13:52:22.035Z,99739.47
2022-11-16T13:54:54.166Z,99742.88
2022-11-16T13:57:22.143Z,99748.00
2022-11-16T14:00:08.999Z,99735.13
2022-11-16T14:02:42.754Z,99736.81
2022-11-16T14:05:12.917Z,99747.91
2022-11-16T14:07:47.494Z,99742.78
2022-11-16T14:10:35.250Z,99738.53
2022-11-16T14:13:04.722Z,99738.53
2022-11-16T14:15:33.565Z,99735.97
2022-11-16T14:18:21.068Z,99736.81
2022-11-16T14:21:27.252Z,99734.22
2022-11-16T14:24:36.523Z,99733.38
2022-11-16T14:27:31.711Z,99730.78
2022-11-16T14:30:25.210Z,99734.19
2022-11-16T14:32:56.240Z,99733.31
2022-11-16T14:35:29.024Z,99735.88
2022-11-16T14:38:05.815Z,99729.03
2022-11-16T14:40:53.565Z,99718.72
2022-11-16T14:43:31.732Z,99734.88
2022-11-16T14:46:07.358Z,99739.13
2022-11-16T14:48:42.508Z,99727.09
2022-11-16T14:51:33.479Z,99733.91
2022-11-16T14:54:16.758Z,99732.22
2022-11-16T14:57:01.761Z,99728.78
2022-11-16T14:59:30.639Z,99735.59
2022-11-16T15:02:01.463Z,99733.88
2022-11-16T15:04:30.302Z,99740.69
2022-11-16T15:07:02.716Z,99738.91
2022-11-16T15:09:42.181Z,99730.41
2022-11-16T15:12:35.288Z,99737.22
2022-11-16T15:15:15.753Z,99725.19
2022-11-16T15:17:52.183Z,99747.47
2022-11-16T15:20:23.739Z,99746.66
2022-11-16T15:22:53.504Z,99734.63
2022-11-16T15:25:53.903Z,99735.53
2022-11-16T15:28:22.652Z,99732.88
2022-11-16T15:30:56.109Z,99738.84
2022-11-16T15:33:27.582Z,99744.84
2022-11-16T15:35:55.974Z,99754.22
2022-11-16T15:38:33.826Z,99744.81
2022-11-16T15:41:05.487Z,99744.78
2022-11-16T15:43:49.560Z,99741.34
2022-11-16T15:46:24.757Z,99756.72
2022-11-16T15:48:53.674Z,99749.88
2022-11-16T15:51:31.416Z,99754.16
2022-11-16T15:54:25.503Z,99762.63
2022-11-16T15:56:57.026Z,99759.19
2022-11-16T15:59:31.810Z,99759.16
2022-11-16T16:01:59.613Z,99759.19
2022-11-16T16:04:29.171Z,99760.06
2022-11-16T16:07:00.969Z,99764.31
2022-11-16T16:09:39.115Z,99759.19
2022-11-16T16:12:22.032Z,99760.06
2022-11-16T16:14:51.014Z,99759.19
2022-11-16T16:17:29.950Z,99757.47
2022-11-16T16:20:02.819Z,99755.75
2022-11-16T16:22:33.348Z,99763.44
2022-11-16T16:25:01.869Z,99760.94
2022-11-16T16:27:31.008Z,99768.56
2022-11-16T16:30:04.426Z,99757.47
2022-11-16T16:32:34.296Z,99754.00
2022-11-16T16:35:04.188Z,99767.66
2022-11-16T16:37:33.430Z,99776.16
2022-11-16T16:40:00.855Z,99765.06
2022-11-16T16:42:28.410Z,99783.00
2022-11-16T16:44:55.781Z,99776.16
2022-11-16T16:47:23.119Z,99777.91
2022-11-16T16:49:50.570Z,99786.38
2022-11-16T16:52:18.364Z,99786.31
2022-11-16T16:54:45.721Z,99767.47
2022-11-16T16:57:17.510Z,99784.72
2022-11-16T16:59:45.923Z,99783.03
2022-11-16T17:02:13.330Z,99786.38
2022-11-16T17:04:41.522Z,99783.81
2022-11-16T17:07:08.945Z,99796.59
2022-11-16T17:09:36.326Z,99801.66
2022-11-16T17:12:03.904Z,99801.66
2022-11-16T17:14:32.375Z,99804.16
2022-11-16T17:17:00.370Z,99798.16
2022-11-16T17:19:30.832Z,99802.38
2022-11-16T17:21:58.570Z,99796.38
2022-11-16T17:24:26.101Z,99796.31
2022-11-16T17:26:53.787Z,99794.63
2022-11-16T17:29:21.144Z,99791.13
2022-11-16T17:31:48.445Z,99793.69
2022-11-16T17:34:16.080Z,99798.78
2022-11-16T17:36:43.877Z,99791.09
2022-11-16T17:39:11.465Z,99802.97
2022-11-16T17:41:38.854Z,99806.31
2022-11-16T17:44:06.719Z,99811.41
2022-11-16T17:46:34.028Z,99802.84
2022-11-16T17:49:01.983Z,99810.53
2022-11-16T17:51:32.757Z,99818.19
2022-11-16T17:54:00.233Z,99817.25
2022-11-16T17:56:28.645Z,99814.66
2022-11-16T17:58:58.652Z,99812.94
2022-11-16T18:01:27.412Z,99812.91
2022-11-16T18:03:55.399Z,99819.72
2022-11-16T18:06:25.870Z,99811.25
2022-11-16T18:08:54.639Z,99801.03
2022-11-16T18:11:24.603Z,99806.16
2022-11-16T18:13:55.329Z,99811.25
2022-11-16T18:16:26.079Z,99802.72
2022-11-16T18:18:58.413Z,99807.81
2022-11-16T18:21:26.818Z,99806.06
2022-11-16T18:23:54.325Z,99803.50
2022-11-16T18:26:23.909Z,99804.34
2022-11-16T18:28:52.753Z,99797.50
2022-11-16T18:31:22.351Z,99800.91
2022-11-16T18:33:50.560Z,99802.59
2022-11-16T18:36:20.159Z,99808.53
2022-11-16T18:38:48.118Z,99807.72
2022-11-16T18:41:21.238Z,99800.88
2022-11-16T18:43:53.044Z,99799.16
2022-11-16T18:46:21.724Z,99802.53
2022-11-16T18:48:50.534Z,99793.97
2022-11-16T18:51:19.420Z,99787.09
2022-11-16T18:53:47.388Z,99800.84
2022-11-16T18:56:15.452Z,99800.84
2022-11-16T18:58:52.250Z,99807.66
2022-11-16T19:01:22.961Z,99766.44
2022-11-16T19:03:50.755Z,99810.16
2022-11-16T19:06:19.040Z,99818.72
2022-11-16T19:08:53.655Z,99812.75
2022-11-16T19:11:23.610Z,99814.50
2022-11-16T19:13:56.715Z,99803.34
2022-11-16T19:16:25.197Z,99799.09
2022-11-16T19:18:53.420Z,99817.88
2022-11-16T19:21:22.212Z,99805.97
2022-11-16T19:23:53.937Z,99797.38
2022-11-16T19:26:23.718Z,99806.78
2022-11-16T19:28:52.212Z,99808.53
2022-11-16T19:31:22.342Z,99811.09
2022-11-16T19:33:58.011Z,99811.91
2022-11-16T19:36:26.763Z,99819.63
2022-11-16T19:38:54.215Z,99809.41
2022-11-16T19:41:22.796Z,99804.28
2022-11-16T19:43:53.097Z,99814.53
2022-11-16T19:46:22.625Z,99815.38
2022-11-16T19:48:50.977Z,99814.53
2022-11-16T19:51:19.725Z,99801.81
2022-11-16T19:53:48.642Z,99804.38
2022-11-16T19:56:19.180Z,99801.81
2022-11-16T19:58:47.005Z,99807.72
2022-11-16T20:01:28.243Z,99806.88
2022-11-16T20:03:58.686Z,99804.28
2022-11-16T20:06:29.546Z,99812.91
2022-11-16T20:09:01.335Z,99810.31
2022-11-16T20:11:34.855Z,99802.69
2022-11-16T20:14:05.655Z,99804.38
2022-11-16T20:16:39.222Z,99797.56
2022-11-16T20:19:11.255Z,99807.75
2022-11-16T20:21:41.185Z,99794.13
2022-11-16T20:24:13.016Z,99798.31
2022-11-16T20:26:46.538Z,99797.53
2022-11-16T20:29:17.520Z,99792.44
2022-11-16T20:31:46.765Z,99788.13
2022-11-16T20:34:17.084Z,99799.28
2022-11-16T20:36:46.584Z,99799.22
2022-11-16T20:39:17.144Z,99797.56
2022-11-16T20:41:45.916Z,99799.28
2022-11-16T20:44:18.534Z,99797.59
2022-11-16T20:46:46.843Z,99771.81
2022-11-16T20:49:15.034Z,99811.22
2022-11-16T20:51:42.884Z,99807.78
2022-11-16T20:54:10.755Z,99804.38
2022-11-16T20:56:39.025Z,99806.13
2022-11-16T20:59:06.944Z,99804.34
2022-11-16T21:01:35.392Z,99814.63
2022-11-16T21:04:06.355Z,99811.25
2022-11-16T21:06:34.624Z,99802.75
2022-11-16T21:09:02.838Z,99795.91
2022-11-16T21:11:52.285Z,99801.91
2022-11-16T21:14:21.164Z,99807.78
2022-11-16T21:16:49.529Z,99806.06
2022-11-16T21:19:18.395Z,99802.72
2022-11-16T21:21:45.953Z,99816.38
2022-11-16T21:24:15.248Z,99804.44
2022-11-16T21:26:43.053Z,99803.63
2022-11-16T21:29:11.075Z,99799.34
2022-11-16T21:31:38.816Z,99796.81
2022-11-16T21:34:07.984Z,99772.00
2022-11-16T21:36:37.050Z,99783.25
2022-11-16T21:39:04.914Z,99785.84
2022-11-16T21:41:32.775Z,99786.69
2022-11-16T21:44:01.046Z,99783.19
2022-11-16T21:46:28.965Z,99793.50
2022-11-16T21:48:57.177Z,99800.31
2022-11-16T21:51:27.537Z,99802.84
2022-11-16T21:53:55.711Z,99802.81
2022-11-16T21:56:25.214Z,99814.78
2022-11-16T21:58:54.781Z,99809.63
2022-11-16T22:01:24.295Z,99813.03
2022-11-16T22:04:11.241Z,99813.88
2022-11-16T22:06:57.951Z,99812.19
2022-11-16T22:09:25.846Z,99802.72
2022-11-16T22:11:54.270Z,99805.34
2022-11-16T22:14:22.420Z,99809.56
2022-11-16T22:16:50.119Z,99806.22
2022-11-16T22:19:17.959Z,99800.25
2022-11-16T22:21:46.090Z,99790.00
2022-11-16T22:24:14.030Z,99797.69
2022-11-16T22:26:42.671Z,99792.59
2022-11-16T22:29:10.951Z,99797.66
2022-11-16T22:31:39.171Z,99792.59
2022-11-16T22:34:07.390Z,99802.81
2022-11-16T22:36:35.500Z,99801.16
2022-11-16T22:39:03.712Z,99805.41
2022-11-16T22:41:31.722Z,99797.72
2022-11-16T22:43:59.700Z,99793.47
2022-11-16T22:46:27.791Z,99770.38
2022-11-16T22:48:55.920Z,99785.84
2022-11-16T22:51:25.991Z,99785.88
2022-11-16T22:54:02.915Z,99791.00
2022-11-16T22:56:33.415Z,99784.13
2022-11-16T22:59:03.171Z,99785.88
2022-11-16T23:01:31.255Z,99785.91
2022-11-16T23:03:59.151Z,99789.28
2022-11-16T23:06:26.806Z,99795.28
2022-11-16T23:08:54.614Z,99791.00
2022-11-16T23:11:43.429Z,99799.56
2022-11-16T23:14:32.159Z,99797.84
2022-11-16T23:17:00.235Z,99806.31
2022-11-16T23:19:46.788Z,99808.13
2022-11-16T23:22:38.972Z,99808.09
2022-11-16T23:25:28.416Z,99795.28
2022-11-16T23:27:59.133Z,99791.88
2022-11-16T23:30:26.904Z,99793.56
2022-11-16T23:32:54.660Z,99779.97
2022-11-16T23:35:22.810Z,99787.59
2022-11-16T23:38:08.760Z,99787.53
2022-11-16T23:40:39.469Z,99775.63
2022-11-16T23:43:28.354Z,99787.56
2022-11-16T23:45:55.927Z,99783.28
2022-11-16T23:48:23.375Z,99777.34
2022-11-16T23:50:50.866Z,99782.47
2022-11-16T23:53:18.614Z,99785.84
2022-11-16T23:55:46.276Z,99761.94
2022-11-16T23:58:15.301Z,99782.47
